Unlu-5 — TCON5 — position and weather

sailwx.info

Track history (hours):
 
Tides and Currents Weather Stations Pressure Air Temp Water Temp Dewpoint Dewpoint Depression Visibility Wind Speed Wind Dir Waves Ship Positions

Unlu-5

Last reported at 2017-Nov-23 15:48 UTC. Time now 2017-Dec-12 10:31 UTC.
Position N 36°57' E 013°39'.
Warning: this ship's position is 18 days out of date.

Length 99 m; draft 6.4 m.

Type: Ship. MMSI: 271000854.

Date/timePositionNaut miles runAvg speedWind from/ knotsBaromVisibWave heightAir tempDewpointWater temp
2017-Nov-23 15:48N 36°57' E 013°39'4 7.4
2017-Nov-23 15:13N 36°54' E 013°41'2 7.1
2017-Nov-23 14:58N 36°52' E 013°43'10 6.7
2017-Nov-23 13:26N 36°48' E 013°55'3 7.0
2017-Nov-23 13:00N 36°48' E 013°58'3 6.9
2017-Nov-23 12:30N 36°47' E 014°03'3 6.8
2017-Nov-23 12:00N 36°46' E 014°07'5 6.9
2017-Nov-23 11:19N 36°45' E 014°12'2 7.2
2017-Nov-23 11:00N 36°44' E 014°15'4 7.3
2017-Nov-23 10:30N 36°43' E 014°19'4 7.2
2017-Nov-23 10:00N 36°42' E 014°24'4 7.2
2017-Nov-23 09:30N 36°41' E 014°28'4 7.2
2017-Nov-23 08:59N 36°40' E 014°33'  
2017-Nov-18 06:03N 40°59' E 028°57'1 7.8
2017-Nov-18 05:58N 40°59' E 028°58'  
2017-Nov-15 07:16N 44°23' E 037°24'3 7.4
2017-Nov-15 06:55N 44°24' E 037°27'3 6.9
2017-Nov-15 06:27N 44°26' E 037°31'3 7.6
2017-Nov-15 06:00N 44°28' E 037°35'4 7.8
2017-Nov-15 05:31N 44°30' E 037°39'4 8.0
2017-Nov-15 05:01N 44°33' E 037°43'4 7.9
2017-Nov-15 04:31N 44°36' E 037°47'4 8.0
2017-Nov-15 04:01N 44°39' E 037°50'4 7.3
2017-Nov-15 03:31N 44°42' E 037°49'2 3.3
2017-Nov-15 02:59N 44°44' E 037°47'0 0.0
2017-Nov-15 02:29N 44°44' E 037°47'0 0.0
2017-Nov-15 01:59N 44°44' E 037°47'0 0.0
2017-Nov-15 01:29N 44°44' E 037°47'0 0.0
2017-Nov-15 00:59N 44°44' E 037°47'0 0.0
2017-Nov-15 00:29N 44°44' E 037°47'0 0.0
2017-Nov-14 23:59N 44°44' E 037°47'0 0.0
2017-Nov-14 23:29N 44°44' E 037°47'0 0.0
2017-Nov-14 22:59N 44°44' E 037°47'0 0.0
2017-Nov-14 22:29N 44°44' E 037°47'0 0.0
2017-Nov-14 21:59N 44°44' E 037°47'0 0.0
2017-Nov-14 21:29N 44°44' E 037°47'0 0.0
2017-Nov-14 20:59N 44°44' E 037°47'0 0.0
2017-Nov-14 20:26N 44°44' E 037°47'0 0.0
2017-Nov-14 19:59N 44°44' E 037°47'0 0.0
2017-Nov-14 19:29N 44°44' E 037°47'0 0.0
2017-Nov-14 18:59N 44°44' E 037°47'0 0.0
2017-Nov-14 18:29N 44°44' E 037°47'0 0.0
2017-Nov-14 17:59N 44°44' E 037°47'0 0.0
2017-Nov-14 17:29N 44°44' E 037°47'0 0.0
2017-Nov-14 16:59N 44°44' E 037°47'0 0.0
2017-Nov-14 16:29N 44°44' E 037°47'0 0.0
2017-Nov-14 15:59N 44°44' E 037°47'0 0.0
2017-Nov-14 15:29N 44°44' E 037°47'0 0.0
2017-Nov-14 14:59N 44°44' E 037°47'0 0.0
2017-Nov-14 14:29N 44°44' E 037°47'0 0.0
2017-Nov-14 13:59N 44°44' E 037°47'0 0.0
2017-Nov-14 13:29N 44°44' E 037°47'0 0.0
2017-Nov-14 12:59N 44°44' E 037°47'0 0.0
2017-Nov-14 12:29N 44°44' E 037°47'0 0.0
2017-Nov-14 11:59N 44°44' E 037°47'0 0.0
2017-Nov-14 11:29N 44°44' E 037°47'0 0.0
2017-Nov-14 10:59N 44°44' E 037°47'0 0.0
2017-Nov-14 10:29N 44°44' E 037°47'0 0.0
2017-Nov-14 09:59N 44°44' E 037°47'0 0.0
2017-Nov-14 09:29N 44°44' E 037°47'0 0.0
2017-Nov-14 08:59N 44°44' E 037°47'0 0.0
2017-Nov-14 08:29N 44°44' E 037°47'0 0.0
2017-Nov-14 07:59N 44°44' E 037°47'0 0.0
2017-Nov-14 07:29N 44°44' E 037°47'0 0.0
2017-Nov-14 06:59N 44°44' E 037°47'0 0.0
2017-Nov-14 06:29N 44°44' E 037°47'0 0.0
2017-Nov-14 05:59N 44°44' E 037°47'0 0.0
2017-Nov-14 05:29N 44°44' E 037°47'0 0.0
2017-Nov-14 04:59N 44°44' E 037°47'0 0.0
2017-Nov-14 04:29N 44°44' E 037°47'0 0.0
2017-Nov-14 03:59N 44°44' E 037°47'0 0.0
2017-Nov-14 03:29N 44°44' E 037°47'0 0.0
2017-Nov-14 02:59N 44°44' E 037°47'0 0.0
2017-Nov-14 02:29N 44°44' E 037°47'0 0.0
2017-Nov-14 01:59N 44°44' E 037°47'0 0.0
2017-Nov-14 01:29N 44°44' E 037°47'0 0.0
2017-Nov-14 00:59N 44°44' E 037°47'0 0.0
2017-Nov-14 00:26N 44°44' E 037°47'0 0.0
2017-Nov-13 23:59N 44°44' E 037°47'0 0.0
2017-Nov-13 23:29N 44°44' E 037°47'0 0.0
2017-Nov-13 22:59N 44°44' E 037°47'0 0.0
2017-Nov-13 22:29N 44°44' E 037°47'0 0.0
2017-Nov-13 21:53N 44°44' E 037°47'  
Track history (hours):
 
Tides and Currents Weather Stations Pressure Air Temp Water Temp Dewpoint Dewpoint Depression Visibility Wind Speed Wind Dir Waves Ship Positions

Unlu-5

Last reported at 2017-Nov-23 15:48 UTC. Time now 2017-Dec-12 10:31 UTC.
Position N 36°57' E 013°39'.
Warning: this ship's position is 18 days out of date.

Length 99 m; draft 6.4 m.

Type: Ship. MMSI: 271000854.

Date/timePositionNaut miles runAvg speedWind from/ knotsBaromVisibWave heightAir tempDewpointWater temp
2017-Nov-23 15:48N 36°57' E 013°39'4 7.4
2017-Nov-23 15:13N 36°54' E 013°41'2 7.1
2017-Nov-23 14:58N 36°52' E 013°43'10 6.7
2017-Nov-23 13:26N 36°48' E 013°55'3 7.0
2017-Nov-23 13:00N 36°48' E 013°58'3 6.9
2017-Nov-23 12:30N 36°47' E 014°03'3 6.8
2017-Nov-23 12:00N 36°46' E 014°07'5 6.9
2017-Nov-23 11:19N 36°45' E 014°12'2 7.2
2017-Nov-23 11:00N 36°44' E 014°15'4 7.3
2017-Nov-23 10:30N 36°43' E 014°19'4 7.2
2017-Nov-23 10:00N 36°42' E 014°24'4 7.2
2017-Nov-23 09:30N 36°41' E 014°28'4 7.2
2017-Nov-23 08:59N 36°40' E 014°33'  
2017-Nov-18 06:03N 40°59' E 028°57'1 7.8
2017-Nov-18 05:58N 40°59' E 028°58'  
2017-Nov-15 07:16N 44°23' E 037°24'3 7.4
2017-Nov-15 06:55N 44°24' E 037°27'3 6.9
2017-Nov-15 06:27N 44°26' E 037°31'3 7.6
2017-Nov-15 06:00N 44°28' E 037°35'4 7.8
2017-Nov-15 05:31N 44°30' E 037°39'4 8.0
2017-Nov-15 05:01N 44°33' E 037°43'4 7.9
2017-Nov-15 04:31N 44°36' E 037°47'4 8.0
2017-Nov-15 04:01N 44°39' E 037°50'4 7.3
2017-Nov-15 03:31N 44°42' E 037°49'2 3.3
2017-Nov-15 02:59N 44°44' E 037°47'0 0.0
2017-Nov-15 02:29N 44°44' E 037°47'0 0.0
2017-Nov-15 01:59N 44°44' E 037°47'0 0.0
2017-Nov-15 01:29N 44°44' E 037°47'0 0.0
2017-Nov-15 00:59N 44°44' E 037°47'0 0.0
2017-Nov-15 00:29N 44°44' E 037°47'0 0.0
2017-Nov-14 23:59N 44°44' E 037°47'0 0.0
2017-Nov-14 23:29N 44°44' E 037°47'0 0.0
2017-Nov-14 22:59N 44°44' E 037°47'0 0.0
2017-Nov-14 22:29N 44°44' E 037°47'0 0.0
2017-Nov-14 21:59N 44°44' E 037°47'0 0.0
2017-Nov-14 21:29N 44°44' E 037°47'0 0.0
2017-Nov-14 20:59N 44°44' E 037°47'0 0.0
2017-Nov-14 20:26N 44°44' E 037°47'0 0.0
2017-Nov-14 19:59N 44°44' E 037°47'0 0.0
2017-Nov-14 19:29N 44°44' E 037°47'0 0.0
2017-Nov-14 18:59N 44°44' E 037°47'0 0.0
2017-Nov-14 18:29N 44°44' E 037°47'0 0.0
2017-Nov-14 17:59N 44°44' E 037°47'0 0.0
2017-Nov-14 17:29N 44°44' E 037°47'0 0.0
2017-Nov-14 16:59N 44°44' E 037°47'0 0.0
2017-Nov-14 16:29N 44°44' E 037°47'0 0.0
2017-Nov-14 15:59N 44°44' E 037°47'0 0.0
2017-Nov-14 15:29N 44°44' E 037°47'0 0.0
2017-Nov-14 14:59N 44°44' E 037°47'0 0.0
2017-Nov-14 14:29N 44°44' E 037°47'0 0.0
2017-Nov-14 13:59N 44°44' E 037°47'0 0.0
2017-Nov-14 13:29N 44°44' E 037°47'0 0.0
2017-Nov-14 12:59N 44°44' E 037°47'0 0.0
2017-Nov-14 12:29N 44°44' E 037°47'0 0.0
2017-Nov-14 11:59N 44°44' E 037°47'0 0.0
2017-Nov-14 11:29N 44°44' E 037°47'0 0.0
2017-Nov-14 10:59N 44°44' E 037°47'0 0.0
2017-Nov-14 10:29N 44°44' E 037°47'0 0.0
2017-Nov-14 09:59N 44°44' E 037°47'0 0.0
2017-Nov-14 09:29N 44°44' E 037°47'0 0.0
2017-Nov-14 08:59N 44°44' E 037°47'0 0.0
2017-Nov-14 08:29N 44°44' E 037°47'0 0.0
2017-Nov-14 07:59N 44°44' E 037°47'0 0.0
2017-Nov-14 07:29N 44°44' E 037°47'0 0.0
2017-Nov-14 06:59N 44°44' E 037°47'0 0.0
2017-Nov-14 06:29N 44°44' E 037°47'0 0.0
2017-Nov-14 05:59N 44°44' E 037°47'0 0.0
2017-Nov-14 05:29N 44°44' E 037°47'0 0.0
2017-Nov-14 04:59N 44°44' E 037°47'0 0.0
2017-Nov-14 04:29N 44°44' E 037°47'0 0.0
2017-Nov-14 03:59N 44°44' E 037°47'0 0.0
2017-Nov-14 03:29N 44°44' E 037°47'0 0.0
2017-Nov-14 02:59N 44°44' E 037°47'0 0.0
2017-Nov-14 02:29N 44°44' E 037°47'0 0.0
2017-Nov-14 01:59N 44°44' E 037°47'0 0.0
2017-Nov-14 01:29N 44°44' E 037°47'0 0.0
2017-Nov-14 00:59N 44°44' E 037°47'0 0.0
2017-Nov-14 00:26N 44°44' E 037°47'0 0.0
2017-Nov-13 23:59N 44°44' E 037°47'0 0.0
2017-Nov-13 23:29N 44°44' E 037°47'0 0.0
2017-Nov-13 22:59N 44°44' E 037°47'0 0.0
2017-Nov-13 22:29N 44°44' E 037°47'0 0.0
2017-Nov-13 21:53N 44°44' E 037°47'  

Dump ship's entire track history